Time;durP1;ratioP1;P1;durP2;ratioP2;P2;SDS_P1;SDS_P2;PMS_P1;PMS_P2;Temp;Humidity;BMP_temperature;BMP_pressure;BME280_temperature;BME280_humidity;BME280_pressure;Samples;Min_cycle;Max_cycle;Signal;HPM_P1;HPM_P2
2022/11/14 00:04:53;;;;;;;154.32;11.60;;;;;;;1.68;69.96;99990.28;10330709;28;20054;-77
2022/11/14 00:09:55;;;;;;;313.02;13.88;;;;;;;1.63;69.60;99992.09;10332457;28;20042;-77
2022/11/14 00:14:56;;;;;;;148.82;12.85;;;;;;;1.58;69.84;99983.63;10346149;28;20053;-76
2022/11/14 00:19:58;;;;;;;208.68;16.85;;;;;;;1.56;69.68;99985.41;10329772;28;20412;-77
2022/11/14 00:25:00;;;;;;;193.00;16.90;;;;;;;1.48;69.64;99982.16;10331684;28;20878;-76
2022/11/14 00:30:02;;;;;;;36.80;8.20;;;;;;;1.49;69.61;99976.09;10339780;28;20054;-77
2022/11/14 00:35:04;;;;;;;96.28;13.73;;;;;;;1.36;69.93;99967.78;10330408;28;20054;-76
2022/11/14 00:40:06;;;;;;;85.53;11.07;;;;;;;1.35;69.93;99961.81;10330188;28;20057;-77
2022/11/14 00:45:08;;;;;;;51.15;8.93;;;;;;;1.32;69.97;99959.28;10327937;28;20856;-75
2022/11/14 00:50:10;;;;;;;23.90;10.55;;;;;;;1.33;69.69;99958.41;10344308;28;20058;-76
2022/11/14 00:55:12;;;;;;;9.55;6.93;;;;;;;1.24;69.73;99961.16;10330852;28;20420;-76
2022/11/14 01:00:13;;;;;;;8.95;6.78;;;;;;;1.28;69.93;99955.06;10331731;28;20046;-76
2022/11/14 01:05:15;;;;;;;10.48;7.07;;;;;;;1.22;69.66;99949.19;10349295;28;20054;-76
2022/11/14 01:10:17;;;;;;;10.15;7.32;;;;;;;1.17;69.63;99940.75;10339083;28;20046;-76
2022/11/14 01:15:19;;;;;;;13.15;8.75;;;;;;;1.21;69.52;99945.81;10328942;28;20923;-76
2022/11/14 01:20:20;;;;;;;9.68;7.10;;;;;;;1.16;69.63;99939.88;10337961;28;20066;-76
2022/11/14 01:25:22;;;;;;;9.02;5.90;;;;;;;1.22;69.67;99934.59;10337863;28;20046;-77
2022/11/14 01:30:24;;;;;;;10.75;6.72;;;;;;;1.30;69.59;99937.00;10335966;28;20054;-76
2022/11/14 01:35:26;;;;;;;9.20;6.68;;;;;;;1.32;69.35;99930.09;10337219;28;20058;-77
2022/11/14 01:40:28;;;;;;;10.63;7.28;;;;;;;1.30;69.18;99922.41;10337040;28;20057;-76
2022/11/14 01:45:46;;;;;;;10.90;7.20;;;;;;;1.19;69.22;99914.06;10337650;28;20054;-77
2022/11/14 01:50:57;;;;;;;14.95;7.43;;;;;;;1.25;69.42;99905.34;10335652;28;20057;-76
2022/11/14 01:56:03;;;;;;;10.90;7.57;;;;;;;1.25;69.18;99892.47;10342752;28;20060;-78
2022/11/14 02:01:05;;;;;;;9.82;7.40;;;;;;;1.28;69.16;99882.09;10338175;28;20058;-78
2022/11/14 02:06:11;;;;;;;11.63;7.78;;;;;;;1.24;69.21;99881.31;10325560;28;20069;-78
2022/11/14 02:11:13;;;;;;;12.48;8.63;;;;;;;1.12;69.05;99865.28;10336141;28;20054;-77
2022/11/14 02:16:15;;;;;;;12.85;7.85;;;;;;;1.05;69.39;99863.75;10333374;28;20049;-77
2022/11/14 02:21:16;;;;;;;10.65;7.85;;;;;;;1.13;69.09;99854.97;10336359;28;20057;-78
2022/11/14 02:26:20;;;;;;;11.18;7.93;;;;;;;1.03;69.06;99845.75;10328661;28;20057;-78
2022/11/14 02:31:21;;;;;;;14.43;8.65;;;;;;;1.05;69.37;99840.56;10327730;28;20054;-78
2022/11/14 02:36:23;;;;;;;12.98;9.48;;;;;;;1.05;69.23;99843.16;10333682;28;20511;-77
2022/11/14 02:41:25;;;;;;;11.88;8.20;;;;;;;1.08;68.79;99843.91;10329596;28;20060;-77
2022/11/14 02:46:27;;;;;;;14.07;10.60;;;;;;;0.93;68.98;99835.69;10324242;28;20062;-77
2022/11/14 02:51:28;;;;;;;13.60;8.48;;;;;;;0.93;69.61;99833.94;10335083;28;20501;-77
2022/11/14 02:56:30;;;;;;;13.60;8.85;;;;;;;0.93;69.29;99835.69;10321211;28;20062;-78
2022/11/14 03:01:32;;;;;;;12.23;8.95;;;;;;;0.92;69.54;99832.28;10310966;28;20058;-77
2022/11/14 03:06:33;;;;;;;11.52;8.55;;;;;;;1.04;69.62;99826.84;10328261;28;20058;-78
2022/11/14 03:11:35;;;;;;;17.23;11.35;;;;;;;1.04;69.66;99816.53;10319896;28;20054;-78
2022/11/14 03:16:37;;;;;;;12.25;8.95;;;;;;;1.05;69.80;99820.81;10328315;28;20738;-78
2022/11/14 03:21:38;;;;;;;18.20;12.07;;;;;;;1.08;69.71;99815.59;10334057;28;20085;-77
2022/11/14 03:26:40;;;;;;;13.35;9.73;;;;;;;1.09;69.73;99814.72;10331034;28;20062;-77
2022/11/14 03:31:42;;;;;;;17.67;9.35;;;;;;;1.18;69.81;99806.75;10318166;28;20058;-78
2022/11/14 03:36:44;;;;;;;12.85;9.65;;;;;;;1.20;69.92;99801.56;10316506;28;20061;-78
2022/11/14 03:41:46;;;;;;;14.38;9.85;;;;;;;1.18;69.45;99793.03;10318000;28;20054;-77
2022/11/14 03:46:48;;;;;;;13.13;8.98;;;;;;;1.13;69.22;99805.19;10316967;28;20407;-77
2022/11/14 03:51:50;;;;;;;17.15;10.45;;;;;;;1.03;69.27;99801.13;10310153;28;20058;-78
2022/11/14 03:56:51;;;;;;;13.13;10.48;;;;;;;0.92;69.49;99806.53;10318253;28;20050;-78
2022/11/14 04:01:53;;;;;;;13.95;9.27;;;;;;;0.99;69.42;99808.06;10306930;28;20563;-78
2022/11/14 04:06:55;;;;;;;12.00;8.75;;;;;;;1.04;69.62;99795.94;10309691;28;20046;-77
2022/11/14 04:11:56;;;;;;;13.32;9.35;;;;;;;1.02;69.49;99792.56;10311298;28;20054;-77
2022/11/14 04:16:58;;;;;;;13.05;8.52;;;;;;;0.95;69.47;99791.00;10311832;28;20899;-78
2022/11/14 04:22:00;;;;;;;16.30;10.48;;;;;;;0.94;69.38;99797.03;10309909;28;20054;-77
2022/11/14 04:27:02;;;;;;;13.95;10.18;;;;;;;0.95;69.67;99783.25;10323959;28;20061;-78
2022/11/14 04:32:04;;;;;;;15.38;10.85;;;;;;;0.95;69.30;99792.75;10310439;28;20054;-78
2022/11/14 04:37:05;;;;;;;14.85;9.85;;;;;;;0.87;69.18;99786.91;10312543;28;20054;-77
2022/11/14 04:42:07;;;;;;;18.13;13.13;;;;;;;0.81;68.93;99795.59;10324923;28;20073;-78
2022/11/14 04:47:09;;;;;;;13.65;9.30;;;;;;;0.69;69.16;99790.75;10323651;28;20427;-78
2022/11/14 04:52:10;;;;;;;13.23;8.70;;;;;;;0.78;69.13;99779.41;10321979;28;20538;-78
2022/11/14 04:57:13;;;;;;;17.48;11.25;;;;;;;1.07;69.30;99775.28;10332533;28;20096;-78
2022/11/14 05:02:14;;;;;;;15.57;9.10;;;;;;;1.42;68.80;99766.66;10325354;28;20050;-78
2022/11/14 05:07:16;;;;;;;14.73;9.55;;;;;;;1.58;68.28;99765.41;10339891;28;20057;-78
2022/11/14 05:12:18;;;;;;;15.20;10.75;;;;;;;1.80;68.59;99768.25;10340556;28;20065;-77
2022/11/14 05:17:19;;;;;;;14.18;11.13;;;;;;;1.88;67.88;99759.44;10338667;28;20068;-78
2022/11/14 05:22:21;;;;;;;12.00;8.13;;;;;;;1.83;68.01;99750.09;10340155;28;20069;-78
2022/11/14 05:27:23;;;;;;;11.70;9.05;;;;;;;1.94;67.87;99753.25;10330813;28;20050;-78
2022/11/14 05:32:24;;;;;;;10.45;8.05;;;;;;;2.02;67.91;99759.88;10323423;28;20054;-77
2022/11/14 05:37:26;;;;;;;12.07;8.40;;;;;;;2.11;67.80;99762.19;10321380;28;20085;-78
2022/11/14 05:42:28;;;;;;;10.32;8.05;;;;;;;2.18;67.59;99770.63;10322842;28;20420;-77
2022/11/14 05:47:29;;;;;;;11.70;8.30;;;;;;;2.30;67.22;99772.84;10323587;28;20057;-77
2022/11/14 05:52:31;;;;;;;11.63;9.18;;;;;;;2.36;67.10;99770.09;10316518;28;20058;-77
2022/11/14 05:57:34;;;;;;;14.20;9.25;;;;;;;2.42;67.07;99767.31;10316920;28;20566;-78
2022/11/14 06:02:36;;;;;;;15.30;10.48;;;;;;;2.44;67.11;99762.13;10315897;28;20050;-78
2022/11/14 06:07:38;;;;;;;14.05;8.20;;;;;;;2.52;67.07;99762.75;10315450;28;20576;-78
2022/11/14 06:12:39;;;;;;;11.75;8.10;;;;;;;2.48;67.17;99758.56;10330002;28;20619;-76
2022/11/14 06:17:41;;;;;;;15.68;8.55;;;;;;;2.60;67.21;99760.78;10330894;28;20050;-76
2022/11/14 06:22:43;;;;;;;16.30;11.18;;;;;;;2.63;67.24;99760.69;10314668;28;20058;-76
2022/11/14 06:27:44;;;;;;;11.73;8.80;;;;;;;2.55;67.19;99766.09;10315399;28;20133;-76
2022/11/14 06:32:46;;;;;;;16.40;12.00;;;;;;;2.64;67.27;99765.78;10314360;28;20515;-76
2022/11/14 06:37:48;;;;;;;15.90;11.60;;;;;;;2.49;67.49;99765.41;10314767;28;20507;-76
2022/11/14 06:42:49;;;;;;;11.70;9.32;;;;;;;2.50;68.15;99769.69;10315032;28;20049;-76
2022/11/14 06:47:51;;;;;;;11.30;8.23;;;;;;;2.64;68.10;99762.38;10316564;28;20772;-76
2022/11/14 06:52:53;;;;;;;16.00;12.07;;;;;;;2.61;68.29;99747.81;10314190;28;20058;-76
2022/11/14 06:57:55;;;;;;;19.98;13.93;;;;;;;2.74;68.70;99756.91;10315276;28;20436;-76
2022/11/14 07:02:56;;;;;;;19.67;11.93;;;;;;;2.99;68.26;99755.22;10313092;28;20054;-76
2022/11/14 07:07:58;;;;;;;18.10;13.27;;;;;;;2.94;67.76;99746.78;10316667;28;20137;-76
2022/11/14 07:13:00;;;;;;;22.25;14.32;;;;;;;2.80;68.86;99736.06;10313827;28;20535;-76
2022/11/14 07:18:01;;;;;;;19.73;12.23;;;;;;;2.81;69.08;99736.88;10315729;28;20059;-76
2022/11/14 07:23:03;;;;;;;17.58;11.90;;;;;;;3.07;68.51;99738.63;10314010;28;20066;-76
2022/11/14 07:28:05;;;;;;;16.77;11.77;;;;;;;3.28;68.31;99736.19;10315338;28;20054;-76
2022/11/14 07:33:07;;;;;;;19.75;13.55;;;;;;;3.24;68.40;99726.00;10327756;28;20054;-76
2022/11/14 07:38:09;;;;;;;21.20;14.10;;;;;;;3.49;68.17;99721.69;10314868;28;20047;-76
2022/11/14 07:43:10;;;;;;;23.40;15.50;;;;;;;3.56;67.91;99729.19;10314259;28;20453;-76
2022/11/14 07:48:12;;;;;;;19.95;13.82;;;;;;;3.50;68.16;99718.19;10313183;28;20053;-77
2022/11/14 07:53:15;;;;;;;25.83;15.80;;;;;;;3.60;68.22;99725.59;10310891;28;20432;-77
2022/11/14 07:58:17;;;;;;;22.10;10.77;;;;;;;3.81;68.03;99722.25;10326674;28;20050;-76
2022/11/14 08:03:19;;;;;;;23.20;13.70;;;;;;;4.00;67.80;99724.22;10320860;28;20050;-77
2022/11/14 08:08:20;;;;;;;23.35;12.50;;;;;;;4.18;67.53;99736.47;10313982;28;20050;-77
2022/11/14 08:13:23;;;;;;;18.73;11.73;;;;;;;4.28;67.50;99741.25;10312000;28;20076;-77
2022/11/14 08:18:34;;;;;;;21.05;14.60;;;;;;;4.31;67.38;99741.13;10313292;28;20046;-77
2022/11/14 08:23:35;;;;;;;19.27;12.85;;;;;;;4.35;67.70;99734.94;10320019;28;20046;-77
2022/11/14 08:28:37;;;;;;;22.73;14.38;;;;;;;4.48;67.50;99727.56;10311033;28;20069;-76
2022/11/14 08:33:39;;;;;;;29.70;16.35;;;;;;;4.64;67.34;99728.66;10318096;28;20053;-77
2022/11/14 08:38:41;;;;;;;22.90;15.65;;;;;;;4.57;67.49;99728.06;10306815;28;20105;-77
2022/11/14 08:43:43;;;;;;;26.58;16.95;;;;;;;4.67;68.17;99733.72;10310236;28;20050;-78
2022/11/14 08:48:45;;;;;;;27.88;17.83;;;;;;;4.87;67.82;99723.41;10306004;28;20059;-78
2022/11/14 08:53:51;;;;;;;25.30;17.15;;;;;;;5.15;67.50;99720.53;10308127;28;20057;-79
2022/11/14 08:58:58;;;;;;;24.42;17.95;;;;;;;5.30;67.59;99720.78;10306887;28;20054;-78
2022/11/14 09:04:01;;;;;;;27.02;18.65;;;;;;;5.42;67.15;99728.03;10308719;28;20405;-78
2022/11/14 09:09:04;;;;;;;29.75;20.40;;;;;;;5.44;67.01;99738.34;10327170;28;20054;-78
2022/11/14 09:14:11;;;;;;;26.60;18.13;;;;;;;5.42;67.06;99737.56;10298256;28;20512;-78
2022/11/14 09:19:14;;;;;;;23.52;16.38;;;;;;;5.36;67.60;99732.63;10326904;28;20054;-78
2022/11/14 09:24:19;;;;;;;26.38;18.27;;;;;;;5.54;67.42;99716.28;10307864;28;20054;-78
2022/11/14 09:29:25;;;;;;;27.23;18.10;;;;;;;5.65;67.27;99729.66;10332753;28;20073;-78
2022/11/14 09:34:28;;;;;;;30.23;20.15;;;;;;;5.71;67.17;99732.00;10312417;28;20054;-79
2022/11/14 09:39:36;;;;;;;31.20;20.48;;;;;;;5.79;67.49;99731.66;10316483;28;20136;-79
2022/11/14 09:44:58;;;;;;;35.55;21.48;;;;;;;5.74;67.64;99742.22;10319664;28;20064;-78
2022/11/14 09:50:13;;;;;;;34.38;21.30;;;;;;;5.72;68.12;99738.84;10312726;28;20050;-78
2022/11/14 09:55:31;;;;;;;30.83;20.63;;;;;;;5.83;67.70;99741.84;10312907;28;20058;-78
2022/11/14 10:01:03;;;;;;;31.65;20.42;;;;;;;6.02;67.21;99732.31;10322325;28;20059;-78
2022/11/14 10:06:21;;;;;;;31.52;20.65;;;;;;;6.32;67.37;99715.41;10303458;28;20512;-78
2022/11/14 10:11:44;;;;;;;42.85;24.70;;;;;;;6.57;68.13;99715.09;10331709;28;20061;-78
2022/11/14 10:17:33;;;;;;;43.60;25.48;;;;;;;6.64;67.44;99708.72;10329456;28;20518;-78
2022/11/14 10:22:39;;;;;;;43.85;24.92;;;;;;;6.76;67.47;99704.69;10329645;28;20407;-78
2022/11/14 10:28:22;;;;;;;45.78;25.38;;;;;;;7.01;66.76;99690.44;10306470;28;20050;-77
2022/11/14 10:34:05;;;;;;;39.25;23.05;;;;;;;7.36;65.96;99704.31;10300451;28;20062;-78
2022/11/14 10:39:29;;;;;;;35.08;21.80;;;;;;;7.34;65.29;99682.72;10304008;28;20408;-77
2022/11/14 10:45:11;;;;;;;39.35;23.90;;;;;;;7.34;66.03;99676.66;10311975;28;20057;-77
2022/11/14 10:50:21;;;;;;;34.45;21.48;;;;;;;7.69;65.89;99689.56;10314244;28;20062;-77
2022/11/14 10:55:23;;;;;;;33.85;21.95;;;;;;;7.81;65.57;99694.13;10310076;28;20084;-77
2022/11/14 11:00:46;;;;;;;33.33;21.00;;;;;;;7.76;65.31;99693.53;10312194;28;20508;-77
2022/11/14 11:05:50;;;;;;;32.85;20.95;;;;;;;8.00;64.94;99688.78;10310236;28;20058;-78
2022/11/14 11:16:33;;;;;;;34.30;20.60;;;;;;;7.62;64.69;99672.59;10308033;28;20050;-77
2022/11/14 11:21:48;;;;;;;29.48;19.58;;;;;;;7.77;64.91;99678.75;10312539;28;20046;-77
2022/11/14 11:27:24;;;;;;;25.77;18.25;;;;;;;7.85;64.27;99646.16;10316153;28;20061;-78
2022/11/14 11:32:27;;;;;;;25.27;17.15;;;;;;;7.63;64.80;99614.41;10306568;28;20054;-77
2022/11/14 11:37:43;;;;;;;27.73;18.08;;;;;;;7.50;64.92;99615.97;10296138;28;20050;-78
2022/11/14 11:43:15;;;;;;;28.90;17.92;;;;;;;7.69;65.07;99636.69;10326984;28;20452;-78
2022/11/14 11:48:45;;;;;;;23.98;17.02;;;;;;;8.26;64.04;99630.13;10310418;28;20070;-77
2022/11/14 11:53:59;;;;;;;25.38;16.55;;;;;;;8.30;63.35;99619.47;10306345;28;20081;-78
2022/11/14 11:59:26;;;;;;;23.05;16.60;;;;;;;8.57;62.17;99636.16;10311878;28;20519;-78
2022/11/14 12:04:29;;;;;;;24.75;15.98;;;;;;;8.93;61.93;99635.84;10307210;28;21023;-77
2022/11/14 12:09:39;;;;;;;24.20;15.77;;;;;;;8.88;61.36;99621.38;10307454;28;20042;-77
2022/11/14 12:15:30;;;;;;;24.98;16.73;;;;;;;8.67;62.42;99603.41;10306119;28;20057;-77
2022/11/14 12:21:08;;;;;;;24.38;16.35;;;;;;;8.58;62.67;99603.09;10307630;28;20072;-77
2022/11/14 12:26:30;;;;;;;23.27;16.45;;;;;;;8.87;62.29;99593.63;10308426;28;20065;-78
2022/11/14 12:31:34;;;;;;;;;;;;;;;8.60;62.36;99581.25;10306243;28;20509;-78
2022/11/14 12:36:43;;;;;;;23.30;15.48;;;;;;;9.02;61.70;99579.66;10324073;28;19928;-77
2022/11/14 12:41:48;;;;;;;23.10;15.73;;;;;;;8.99;61.89;99585.94;10317743;28;20043;-77
2022/11/14 12:47:03;;;;;;;21.45;15.38;;;;;;;8.83;61.81;99562.50;10305387;28;21735;-78
2022/11/14 12:52:44;;;;;;;22.95;15.05;;;;;;;8.71;62.02;99563.22;10309213;28;20050;-80
2022/11/14 12:58:07;;;;;;;19.85;14.98;;;;;;;8.79;61.94;99554.97;10309740;28;20051;-79
2022/11/14 13:03:30;;;;;;;18.08;14.15;;;;;;;8.86;62.01;99545.84;10325428;28;21565;-77
2022/11/14 13:09:11;;;;;;;21.50;14.55;;;;;;;8.73;61.91;99544.84;10318868;28;20427;-79
2022/11/14 13:25:10;;;;;;;23.83;16.02;;;;;;;8.26;63.43;99529.34;10319876;28;20512;-79
2022/11/14 13:30:11;;;;;;;20.13;15.13;;;;;;;8.28;63.50;99522.28;10324674;28;20046;-79
2022/11/14 13:35:44;;;;;;;25.02;16.38;;;;;;;8.30;63.58;99530.03;10326058;28;20153;-79
2022/11/14 13:40:54;;;;;;;25.08;15.85;;;;;;;8.39;63.74;99516.47;10318725;28;20042;-79
2022/11/14 13:46:20;;;;;;;23.38;17.05;;;;;;;8.54;63.72;99516.44;10313720;28;20063;-79
2022/11/14 13:51:24;;;;;;;21.02;15.77;;;;;;;8.61;63.83;99509.94;10311130;28;20725;-79
2022/11/14 13:57:07;;;;;;;19.15;13.45;;;;;;;8.64;63.97;99507.16;10330707;28;20065;-80
2022/11/14 14:02:09;;;;;;;21.27;13.50;;;;;;;8.75;64.22;99511.75;10332931;28;20057;-79
2022/11/14 14:07:14;;;;;;;19.08;12.85;;;;;;;8.80;64.21;99517.50;10322323;28;20057;-79
2022/11/14 14:12:27;;;;;;;16.85;12.27;;;;;;;8.86;64.45;99506.72;10315478;28;20058;-79
2022/11/14 14:17:42;;;;;;;24.25;15.88;;;;;;;8.91;63.92;99502.09;10315344;28;20104;-80
2022/11/14 14:29:23;;;;;;;15.97;11.33;;;;;;;8.95;63.89;99497.53;10315606;28;20026;-79
2022/11/14 14:34:30;;;;;;;17.98;10.73;;;;;;;9.10;63.84;99492.19;10316457;28;20050;-81
2022/11/14 14:39:32;;;;;;;14.05;10.68;;;;;;;9.12;63.97;99489.50;10310753;28;20054;-79
2022/11/14 14:44:50;;;;;;;14.65;11.07;;;;;;;8.99;64.04;99486.81;10313352;28;20054;-79
2022/11/14 14:49:52;;;;;;;16.65;11.02;;;;;;;9.03;64.03;99471.81;10307912;28;20061;-81
2022/11/14 14:54:56;;;;;;;14.98;10.10;;;;;;;9.02;64.54;99476.19;10313331;28;20619;-80
2022/11/14 15:00:28;;;;;;;16.17;10.52;;;;;;;8.92;64.33;99469.84;10310707;28;20049;-80
2022/11/14 15:05:31;;;;;;;16.67;10.40;;;;;;;8.97;64.65;99472.19;10312626;28;20441;-80
2022/11/14 15:10:34;;;;;;;18.30;11.90;;;;;;;8.95;64.46;99459.25;10321386;28;20046;-80
2022/11/14 15:15:45;;;;;;;17.92;12.48;;;;;;;8.90;64.41;99460.44;10322936;28;20493;-81
2022/11/14 15:21:10;;;;;;;18.10;11.02;;;;;;;8.85;64.79;99455.50;10313547;28;20077;-81
2022/11/14 15:26:30;;;;;;;16.90;11.63;;;;;;;8.77;64.85;99445.53;10319673;28;20061;-80
2022/11/14 15:31:46;;;;;;;17.15;11.13;;;;;;;8.69;65.32;99447.75;10313054;28;20051;-81
2022/11/14 15:37:11;;;;;;;14.65;11.52;;;;;;;8.56;65.63;99440.75;10316000;28;20050;-80
2022/11/14 15:42:23;;;;;;;17.77;12.00;;;;;;;8.59;65.81;99437.97;10312117;28;20527;-80
2022/11/14 15:47:26;;;;;;;14.52;11.18;;;;;;;8.62;65.71;99436.03;10319219;28;21408;-77
2022/11/14 15:52:39;;;;;;;16.35;12.15;;;;;;;8.65;65.80;99432.38;10306329;28;20065;-77
2022/11/14 15:57:41;;;;;;;16.75;12.10;;;;;;;8.64;65.88;99431.56;10307191;28;20058;-77
2022/11/14 16:03:11;;;;;;;16.40;12.07;;;;;;;8.56;65.97;99436.41;10308893;28;20120;-77
2022/11/14 16:08:13;;;;;;;13.25;11.52;;;;;;;8.64;65.87;99436.78;10325206;28;20054;-76
2022/11/14 16:13:16;;;;;;;15.82;11.73;;;;;;;8.66;65.90;99436.69;10307116;28;20058;-78
2022/11/14 16:18:27;;;;;;;18.45;12.25;;;;;;;8.63;65.95;99434.25;10306495;28;20061;-78
2022/11/14 16:23:30;;;;;;;13.95;11.65;;;;;;;8.69;65.98;99439.94;10310740;28;20054;-78
2022/11/14 16:28:34;;;;;;;15.70;11.23;;;;;;;8.66;65.90;99440.13;10307459;28;20078;-77
2022/11/14 16:33:39;;;;;;;14.85;10.73;;;;;;;8.68;65.87;99433.06;10308193;28;20054;-77
2022/11/14 16:38:41;;;;;;;14.10;10.68;;;;;;;8.75;65.85;99434.34;10303685;28;20920;-77
2022/11/14 16:43:43;;;;;;;15.45;10.23;;;;;;;8.78;65.55;99439.41;10306644;28;20492;-77
2022/11/14 16:48:46;;;;;;;16.67;10.70;;;;;;;8.84;65.71;99439.03;10324436;28;20065;-77
2022/11/14 16:53:55;;;;;;;14.57;10.90;;;;;;;8.80;65.47;99444.50;10308698;28;20062;-78
2022/11/14 16:59:00;;;;;;;13.38;9.80;;;;;;;8.80;65.28;99452.34;10309444;28;20070;-77
2022/11/14 17:04:02;;;;;;;11.50;9.20;;;;;;;8.76;65.26;99462.13;10306930;28;20054;-78
2022/11/14 17:09:04;;;;;;;13.60;8.63;;;;;;;8.73;65.32;99462.28;10304824;28;20539;-78
2022/11/14 17:14:10;;;;;;;14.88;8.93;;;;;;;8.68;65.35;99458.28;10310461;28;20065;-77
2022/11/14 17:19:15;;;;;;;10.55;7.90;;;;;;;8.70;65.44;99461.63;10308486;28;20053;-77
2022/11/14 17:24:17;;;;;;;11.90;7.82;;;;;;;8.73;65.19;99469.25;10329543;28;20077;-77
2022/11/14 17:29:19;;;;;;;11.88;7.25;;;;;;;8.76;65.28;99466.47;10315625;28;20544;-77
2022/11/14 17:34:21;;;;;;;10.70;7.72;;;;;;;8.75;64.76;99473.47;10326508;28;20523;-77
2022/11/14 17:39:25;;;;;;;9.68;6.70;;;;;;;8.70;65.09;99477.28;10322068;28;20054;-77
2022/11/14 17:44:28;;;;;;;10.60;7.15;;;;;;;8.63;65.32;99470.72;10312452;28;20553;-77
2022/11/14 17:49:30;;;;;;;10.18;7.28;;;;;;;8.54;65.57;99481.72;10315404;28;20089;-77
2022/11/14 17:54:36;;;;;;;10.77;8.35;;;;;;;8.56;65.46;99485.06;10316538;28;20058;-77
2022/11/14 17:59:40;;;;;;;12.23;8.65;;;;;;;8.51;65.63;99484.47;10314168;28;20061;-78
2022/11/14 18:04:44;;;;;;;13.93;9.50;;;;;;;8.56;65.68;99480.72;10316222;28;20054;-77
2022/11/14 18:09:50;;;;;;;13.32;8.63;;;;;;;8.65;65.58;99480.16;10328410;28;20743;-77
2022/11/14 18:14:52;;;;;;;10.43;8.05;;;;;;;8.80;65.34;99487.06;10316119;28;20112;-77
2022/11/14 18:19:55;;;;;;;10.95;7.25;;;;;;;8.90;65.32;99492.56;10312876;28;20050;-77
2022/11/14 18:24:58;;;;;;;11.10;7.63;;;;;;;9.05;65.00;99485.59;10315078;28;20062;-77
2022/11/14 18:30:09;;;;;;;12.30;8.60;;;;;;;9.05;65.05;99499.47;10312516;28;20057;-77
2022/11/14 18:35:32;;;;;;;11.40;8.60;;;;;;;9.12;64.83;99500.78;10310731;28;20887;-78
2022/11/14 18:40:34;;;;;;;40.03;29.23;;;;;;;9.14;64.96;99514.56;10308738;28;20050;-77
2022/11/14 18:45:38;;;;;;;27.88;15.88;;;;;;;9.09;65.01;99507.97;10315146;28;20046;-77
2022/11/14 18:50:39;;;;;;;20.30;14.45;;;;;;;9.10;65.27;99507.00;10308821;28;20058;-78
2022/11/14 18:55:41;;;;;;;20.95;13.63;;;;;;;9.08;64.98;99506.25;10318399;28;20615;-77
2022/11/14 19:00:43;;;;;;;19.42;12.82;;;;;;;9.00;65.37;99503.28;10314447;28;20046;-77
2022/11/14 19:05:46;;;;;;;19.27;12.18;;;;;;;9.08;65.20;99509.72;10330037;28;20046;-78
2022/11/14 19:10:48;;;;;;;14.07;9.63;;;;;;;9.12;65.28;99500.78;10307583;28;20050;-78
2022/11/14 19:16:04;;;;;;;15.10;9.90;;;;;;;9.20;64.99;99511.59;10329735;28;20428;-78
2022/11/14 19:21:09;;;;;;;13.80;10.68;;;;;;;9.14;65.22;99498.06;10304701;28;20086;-79
2022/11/14 19:26:13;;;;;;;16.15;10.10;;;;;;;9.06;65.44;99495.94;10311595;28;20423;-79
2022/11/14 19:31:16;;;;;;;16.77;9.82;;;;;;;9.02;65.48;99502.25;10316307;28;20061;-79
2022/11/14 19:36:23;;;;;;;14.77;10.65;;;;;;;8.96;65.72;99500.03;10316117;28;20058;-83
2022/11/14 19:41:53;;;;;;;15.52;10.40;;;;;;;8.89;65.49;99497.88;10308586;28;20061;-83
2022/11/14 19:46:57;;;;;;;18.97;11.10;;;;;;;8.84;65.71;99496.38;10318797;28;20452;-83
2022/11/14 19:52:00;;;;;;;14.93;11.00;;;;;;;8.80;65.69;99494.03;10310683;28;20054;-79
2022/11/14 19:57:02;;;;;;;16.10;11.88;;;;;;;8.73;65.88;99492.72;10310920;28;20050;-78
2022/11/14 20:02:04;;;;;;;16.73;12.43;;;;;;;8.64;65.80;99494.13;10313206;28;20050;-78
2022/11/14 20:07:06;;;;;;;18.75;12.40;;;;;;;8.58;65.99;99496.25;10311414;28;20522;-78
2022/11/14 20:12:08;;;;;;;17.38;11.85;;;;;;;8.50;65.99;99494.09;10319402;28;20054;-78
2022/11/14 20:17:11;;;;;;;21.60;13.93;;;;;;;8.28;66.17;99492.81;10324505;28;21014;-78
2022/11/14 20:22:12;;;;;;;22.75;14.52;;;;;;;8.14;66.40;99493.56;10321206;28;20438;-78
2022/11/14 20:27:14;;;;;;;25.90;17.67;;;;;;;7.97;66.85;99497.13;10306244;28;20053;-78
2022/11/14 20:32:16;;;;;;;35.05;22.30;;;;;;;7.91;66.99;99497.47;10307357;28;20059;-78
2022/11/14 20:37:18;;;;;;;25.75;18.92;;;;;;;7.82;67.04;99497.97;10306319;28;20064;-79
2022/11/14 20:42:20;;;;;;;26.77;17.85;;;;;;;7.82;67.20;99503.16;10307241;28;20077;-79
2022/11/14 20:47:21;;;;;;;23.08;17.95;;;;;;;7.83;67.33;99499.63;10325074;28;20508;-78
2022/11/14 20:52:23;;;;;;;21.05;16.23;;;;;;;7.76;67.64;99503.50;10309278;28;20062;-78
2022/11/14 20:57:25;;;;;;;22.05;17.10;;;;;;;7.70;67.74;99503.84;10307890;28;20405;-78
2022/11/14 21:02:26;;;;;;;22.55;13.68;;;;;;;7.62;68.09;99495.63;10327881;28;20057;-78
2022/11/14 21:07:28;;;;;;;20.83;15.50;;;;;;;7.64;68.22;99493.78;10309774;28;20078;-78
2022/11/14 21:12:30;;;;;;;21.80;13.50;;;;;;;7.81;68.19;99496.28;10311925;28;20132;-78
2022/11/14 21:17:31;;;;;;;18.67;15.05;;;;;;;7.82;68.10;99495.34;10317219;28;20050;-79
2022/11/14 21:22:33;;;;;;;23.10;16.52;;;;;;;7.84;68.00;99484.84;10325025;28;20046;-79
2022/11/14 21:27:35;;;;;;;18.58;14.65;;;;;;;7.81;68.14;99485.84;10329885;28;20547;-78
2022/11/14 21:32:36;;;;;;;17.25;13.30;;;;;;;7.86;68.01;99496.88;10324798;28;20051;-78
2022/11/14 21:37:38;;;;;;;23.60;16.77;;;;;;;7.83;67.94;99493.59;10323389;28;20054;-79
2022/11/14 21:42:40;;;;;;;25.48;18.27;;;;;;;7.76;68.08;99493.09;10336020;28;20050;-78
2022/11/14 21:47:42;;;;;;;20.33;14.60;;;;;;;7.84;68.08;99490.06;10319231;28;20065;-78
2022/11/14 21:52:44;;;;;;;19.05;14.43;;;;;;;7.92;68.36;99501.72;10326826;28;20054;-78
2022/11/14 21:57:45;;;;;;;25.17;15.38;;;;;;;8.04;67.93;99493.22;10333261;28;20059;-79
2022/11/14 22:08:07;;;;;;;21.08;16.17;;;;;;;7.88;68.10;99497.63;10316538;28;20060;-78
2022/11/14 22:13:09;;;;;;;23.75;17.33;;;;;;;7.90;67.78;99500.13;10318602;28;20522;-78
2022/11/14 22:18:11;;;;;;;20.67;15.32;;;;;;;7.90;67.99;99495.78;10330250;28;20424;-78
2022/11/14 22:23:14;;;;;;;24.10;15.13;;;;;;;7.83;67.97;99488.41;10317725;28;20108;-78
2022/11/14 22:28:15;;;;;;;22.58;15.85;;;;;;;7.80;67.99;99498.97;10307324;28;20070;-78
2022/11/14 22:33:17;;;;;;;25.77;17.98;;;;;;;7.73;68.12;99498.44;10314705;28;20776;-78
2022/11/14 22:38:19;;;;;;;23.75;17.67;;;;;;;7.65;68.20;99498.03;10313493;28;20539;-78
2022/11/14 22:43:21;;;;;;;29.42;19.23;;;;;;;7.62;68.62;99490.41;10315602;28;20500;-78
2022/11/14 22:48:24;;;;;;;28.95;20.13;;;;;;;7.65;68.50;99486.81;10323219;28;20054;-78
2022/11/14 22:53:30;;;;;;;22.90;16.88;;;;;;;7.76;68.58;99498.31;10331376;28;20062;-78
2022/11/14 22:58:35;;;;;;;21.20;16.40;;;;;;;7.80;68.51;99505.00;10305701;28;20141;-78
2022/11/14 23:03:37;;;;;;;25.67;18.23;;;;;;;7.76;68.79;99513.91;10330540;28;20535;-78
2022/11/14 23:08:40;;;;;;;28.90;19.05;;;;;;;7.68;69.17;99510.91;10320736;28;20062;-78
2022/11/14 23:13:45;;;;;;;29.65;19.63;;;;;;;7.68;69.18;99510.91;10315154;28;20046;-78
2022/11/14 23:18:49;;;;;;;28.20;18.38;;;;;;;7.75;69.07;99504.41;10313132;28;20054;-78
2022/11/14 23:23:52;;;;;;;31.65;19.15;;;;;;;7.74;69.29;99512.31;10314182;28;21578;-78
2022/11/14 23:29:21;;;;;;;29.10;20.42;;;;;;;7.78;68.98;99496.44;10316903;28;20049;-78
2022/11/14 23:34:23;;;;;;;29.77;19.73;;;;;;;7.83;69.01;99493.59;10317097;28;20484;-78
2022/11/14 23:39:25;;;;;;;26.80;20.25;;;;;;;7.77;68.56;99481.75;10322992;28;20062;-78
2022/11/14 23:44:27;;;;;;;28.90;19.77;;;;;;;7.61;68.82;99478.31;10322229;28;20061;-78
2022/11/14 23:49:28;;;;;;;28.65;19.02;;;;;;;7.52;69.29;99489.25;10328510;28;20061;-78
2022/11/14 23:54:30;;;;;;;31.85;21.13;;;;;;;7.31;69.37;99485.19;10324328;28;20049;-78
2022/11/14 23:59:32;;;;;;;27.88;19.90;;;;;;;7.37;69.46;99491.81;10324902;28;20780;-78
